West Fargo, North Dakota
Current Conditions -  °F | °C
As of 11:53 PM on Saturday 22 Nov 2014 (Local Time) from KFAR Reporting Station
Haze Haze  
Wind Chill: -3°   Ceiling: 400
Heat Index:   Visibility: 4mi
Dew Point:   Wind: 14mph
Humidity: 89%   Direction: 170°S
Pressure: 29.38"   Gusts: NA
Location:  46.87°N, 96.88°W
Report Text: KFAR 230553Z 17012KT 4SM BR OVC004 02/01 A2938 RMK AO2 SLP955 T00220006 10033 20017 400781061 58004
Loading
Personal Weather Stations






























Interactive Weather Map New forecast layout! Learn more

10-Day Weather Forecast

Advertisements
Track Severe Weather on mobile